createdAt,value
2022-11-18T00:01:46.068Z,1.35
2022-11-18T00:04:12.246Z,1.60
2022-11-18T00:06:38.391Z,1.45
2022-11-18T00:09:04.940Z,1.52
2022-11-18T00:11:31.094Z,1.35
2022-11-18T00:13:57.253Z,1.85
2022-11-18T00:16:23.459Z,1.42
2022-11-18T00:18:49.645Z,1.40
2022-11-18T00:21:15.844Z,1.35
2022-11-18T00:23:42.039Z,1.48
2022-11-18T00:26:08.241Z,1.92
2022-11-18T00:28:34.368Z,2.15
2022-11-18T00:31:00.512Z,2.20
2022-11-18T00:33:26.721Z,2.50
2022-11-18T00:35:52.896Z,2.10
2022-11-18T00:38:19.102Z,1.83
2022-11-18T00:40:45.249Z,1.92
2022-11-18T00:43:11.394Z,1.95
2022-11-18T00:45:37.511Z,1.63
2022-11-18T00:48:03.658Z,1.80
2022-11-18T00:50:29.865Z,1.55
2022-11-18T00:52:56.046Z,1.70
2022-11-18T00:55:22.219Z,1.70
2022-11-18T00:57:48.376Z,1.70
2022-11-18T01:00:14.541Z,1.92
2022-11-18T01:02:40.727Z,1.67
2022-11-18T01:05:06.877Z,1.70
2022-11-18T01:07:33.032Z,1.63
2022-11-18T01:09:59.235Z,1.67
2022-11-18T01:12:25.436Z,1.70
2022-11-18T01:14:51.638Z,2.10
2022-11-18T01:17:17.855Z,1.50
2022-11-18T01:19:44.029Z,2.60
2022-11-18T01:22:10.198Z,2.00
2022-11-18T01:24:36.412Z,2.33
2022-11-18T01:27:02.570Z,2.28
2022-11-18T01:29:28.697Z,1.88
2022-11-18T01:32:22.597Z,2.30
2022-11-18T01:34:41.081Z,2.20
2022-11-18T01:37:07.276Z,2.40
2022-11-18T01:39:33.460Z,2.30
2022-11-18T01:41:59.646Z,2.17
2022-11-18T01:44:25.798Z,2.63
2022-11-18T01:46:51.917Z,2.38
2022-11-18T01:49:18.306Z,2.70
2022-11-18T01:51:44.645Z,2.17
2022-11-18T01:54:10.848Z,2.75
2022-11-18T01:56:37.025Z,2.80
2022-11-18T01:59:03.182Z,2.80
2022-11-18T02:01:29.360Z,3.03
2022-11-18T02:03:55.614Z,3.00
2022-11-18T02:06:21.792Z,2.60
2022-11-18T02:08:48.967Z,2.70
2022-11-18T02:11:15.152Z,2.88
2022-11-18T02:13:41.332Z,2.05
2022-11-18T02:16:07.545Z,2.40
2022-11-18T02:18:33.735Z,2.70
2022-11-18T02:20:59.899Z,2.17
2022-11-18T02:23:26.065Z,2.38
2022-11-18T02:25:52.247Z,2.50
2022-11-18T02:28:18.394Z,2.85
2022-11-18T02:30:44.553Z,2.70
2022-11-18T02:33:10.709Z,2.53
2022-11-18T02:35:36.916Z,2.97
2022-11-18T02:38:03.091Z,2.58
2022-11-18T02:40:29.250Z,2.60
2022-11-18T02:42:55.432Z,2.42
2022-11-18T02:45:21.650Z,2.28
2022-11-18T02:47:47.839Z,2.72
2022-11-18T02:50:14.003Z,2.92
2022-11-18T02:52:40.128Z,2.40
2022-11-18T02:55:06.313Z,2.33
2022-11-18T02:57:32.479Z,2.75
2022-11-18T02:59:58.628Z,2.45
2022-11-18T03:02:24.791Z,2.40
2022-11-18T03:04:50.983Z,2.42
2022-11-18T03:07:17.159Z,2.17
2022-11-18T03:09:43.348Z,2.10
2022-11-18T03:12:09.474Z,1.75
2022-11-18T03:14:35.624Z,2.08
2022-11-18T03:17:01.795Z,2.45
2022-11-18T03:19:27.973Z,2.33
2022-11-18T03:21:54.162Z,2.70
2022-11-18T03:24:20.376Z,2.22
2022-11-18T03:26:46.512Z,2.35
2022-11-18T03:29:12.666Z,2.20
2022-11-18T03:31:38.793Z,2.75
2022-11-18T03:34:04.965Z,2.15
2022-11-18T03:36:31.116Z,2.97
2022-11-18T03:38:57.331Z,1.90
2022-11-18T03:41:23.497Z,2.60
2022-11-18T03:43:49.667Z,3.00
2022-11-18T03:46:15.906Z,2.70
2022-11-18T03:48:42.053Z,2.53
2022-11-18T03:51:08.250Z,2.25
2022-11-18T03:53:34.429Z,2.38
2022-11-18T03:56:00.650Z,2.30
2022-11-18T03:58:26.827Z,1.92
2022-11-18T04:00:52.969Z,2.15
2022-11-18T04:03:19.182Z,2.10
2022-11-18T04:05:45.332Z,1.95
2022-11-18T04:08:11.478Z,1.80
2022-11-18T04:10:37.596Z,1.50
2022-11-18T04:13:06.489Z,1.90
2022-11-18T04:15:32.959Z,1.73
2022-11-18T04:17:59.158Z,1.98
2022-11-18T04:20:25.360Z,1.33
2022-11-18T04:22:51.523Z,1.35
2022-11-18T04:25:17.684Z,1.25
2022-11-18T04:27:43.808Z,1.23
2022-11-18T04:30:10.029Z,1.58
2022-11-18T04:32:36.234Z,0.85
2022-11-18T04:35:02.385Z,0.90
2022-11-18T04:37:28.513Z,0.40
2022-11-18T04:39:54.646Z,1.00
2022-11-18T04:42:20.789Z,0.70
2022-11-18T04:44:46.977Z,0.60
2022-11-18T04:47:13.187Z,0.57
2022-11-18T04:49:39.314Z,0.63
2022-11-18T04:52:05.524Z,0.75
2022-11-18T04:54:31.707Z,0.50
2022-11-18T04:56:57.883Z,0.75
2022-11-18T04:59:24.048Z,0.63
2022-11-18T05:01:50.349Z,0.73
2022-11-18T05:04:16.557Z,0.63
2022-11-18T05:06:42.791Z,0.93
2022-11-18T05:09:08.956Z,0.73
2022-11-18T05:11:35.086Z,0.50
2022-11-18T05:14:01.392Z,0.60
2022-11-18T05:16:27.723Z,1.00
2022-11-18T05:18:54.187Z,0.82
2022-11-18T05:21:20.414Z,0.80
2022-11-18T05:23:47.111Z,0.90
2022-11-18T05:26:13.255Z,0.93
2022-11-18T05:28:39.484Z,0.80
2022-11-18T05:31:05.631Z,0.68
2022-11-18T05:33:31.764Z,0.70
2022-11-18T05:35:57.930Z,0.70
2022-11-18T05:38:24.077Z,0.73
2022-11-18T05:40:50.215Z,0.70
2022-11-18T05:43:16.451Z,0.68
2022-11-18T05:45:42.602Z,0.80
2022-11-18T05:48:08.740Z,1.10
2022-11-18T05:50:34.929Z,0.90
2022-11-18T05:53:01.139Z,0.50
2022-11-18T05:55:27.297Z,0.80
2022-11-18T05:57:53.437Z,0.80
2022-11-18T06:00:19.614Z,0.55
2022-11-18T06:02:45.799Z,0.80
2022-11-18T06:05:11.997Z,0.70
2022-11-18T06:07:38.226Z,1.02
2022-11-18T06:10:06.087Z,1.05
2022-11-18T06:12:32.500Z,1.10
2022-11-18T06:14:58.676Z,1.00
2022-11-18T06:17:24.893Z,0.73
2022-11-18T06:19:51.053Z,0.63
2022-11-18T06:22:17.178Z,0.70
2022-11-18T06:24:43.305Z,0.73
2022-11-18T06:27:09.493Z,0.80
2022-11-18T06:29:35.691Z,0.60
2022-11-18T06:32:01.833Z,0.63
2022-11-18T06:34:28.032Z,0.88
2022-11-18T06:36:54.239Z,0.70
2022-11-18T06:39:20.855Z,0.88
2022-11-18T06:41:47.202Z,1.08
2022-11-18T06:44:13.414Z,0.70
2022-11-18T06:46:39.589Z,0.60
2022-11-18T06:49:05.784Z,0.93
2022-11-18T06:51:32.207Z,0.82
2022-11-18T06:53:58.475Z,0.93
2022-11-18T06:56:24.659Z,1.00
2022-11-18T06:58:50.874Z,0.77
2022-11-18T07:01:17.219Z,0.80
2022-11-18T07:03:43.488Z,0.47
2022-11-18T07:06:09.677Z,1.00
2022-11-18T07:08:35.880Z,0.50
2022-11-18T07:11:02.035Z,0.65
2022-11-18T07:13:28.231Z,0.63
2022-11-18T07:15:54.432Z,0.65
2022-11-18T07:18:20.561Z,0.73
2022-11-18T07:20:46.712Z,0.80
2022-11-18T07:23:12.923Z,0.68
2022-11-18T07:25:44.004Z,0.40
2022-11-18T07:28:11.320Z,0.70
2022-11-18T07:30:37.451Z,0.50
2022-11-18T07:33:03.647Z,0.55
2022-11-18T07:35:29.800Z,0.75
2022-11-18T07:37:55.994Z,0.93
2022-11-18T07:40:22.141Z,1.00
2022-11-18T07:42:48.310Z,0.90
2022-11-18T07:45:14.524Z,1.00
2022-11-18T07:47:40.667Z,0.70
2022-11-18T07:50:06.831Z,0.90
2022-11-18T07:52:32.991Z,1.25
2022-11-18T07:54:59.205Z,0.90
2022-11-18T07:57:25.342Z,1.40
2022-11-18T07:59:51.569Z,1.00
2022-11-18T08:02:17.752Z,1.10
2022-11-18T08:04:44.234Z,1.38
2022-11-18T08:07:10.524Z,1.45
2022-11-18T08:09:36.743Z,1.25
2022-11-18T08:12:02.915Z,1.38
2022-11-18T08:14:29.052Z,1.20
2022-11-18T08:16:55.225Z,1.30
2022-11-18T08:19:21.381Z,1.40
2022-11-18T08:21:47.577Z,1.40
2022-11-18T08:24:13.711Z,1.20
2022-11-18T08:26:39.928Z,1.00
2022-11-18T08:29:06.064Z,1.30
2022-11-18T08:31:32.202Z,1.30
2022-11-18T08:33:58.400Z,1.30
2022-11-18T08:36:24.532Z,1.20
2022-11-18T08:38:50.752Z,1.20
2022-11-18T08:41:16.942Z,1.30
2022-11-18T08:43:43.162Z,1.10
2022-11-18T08:46:09.364Z,1.33
2022-11-18T08:48:35.572Z,1.73
2022-11-18T08:51:01.775Z,1.40
2022-11-18T08:53:27.963Z,1.67
2022-11-18T08:55:57.090Z,1.17
2022-11-18T08:58:23.547Z,1.30
2022-11-18T09:00:49.749Z,1.33
2022-11-18T09:03:15.973Z,1.15
2022-11-18T09:05:42.180Z,1.40
2022-11-18T09:08:08.456Z,1.48
2022-11-18T09:10:34.620Z,1.50
2022-11-18T09:13:18.465Z,1.50
2022-11-18T09:15:47.262Z,1.60
2022-11-18T09:18:13.503Z,1.65
2022-11-18T09:20:39.661Z,1.50
2022-11-18T09:23:05.879Z,1.73
2022-11-18T09:25:32.073Z,1.80
2022-11-18T09:27:58.253Z,1.83
2022-11-18T09:30:24.458Z,1.75
2022-11-18T09:32:50.601Z,2.00
2022-11-18T09:35:16.826Z,1.42
2022-11-18T09:37:42.962Z,1.90
2022-11-18T09:40:09.130Z,1.75
2022-11-18T09:42:35.317Z,1.30
2022-11-18T09:45:01.527Z,1.55
2022-11-18T09:47:27.724Z,1.58
2022-11-18T09:49:53.852Z,1.60
2022-11-18T09:52:20.018Z,1.42
2022-11-18T09:54:46.196Z,1.65
2022-11-18T09:57:12.327Z,1.10
2022-11-18T09:59:38.532Z,1.38
2022-11-18T10:02:04.835Z,1.42
2022-11-18T10:04:31.030Z,1.30
2022-11-18T10:06:57.266Z,1.33
2022-11-18T10:09:23.557Z,1.60
2022-11-18T10:11:52.098Z,1.65
2022-11-18T10:14:18.714Z,1.58
2022-11-18T10:16:45.098Z,1.80
2022-11-18T10:19:11.310Z,1.65
2022-11-18T10:21:37.482Z,1.50
2022-11-18T10:24:03.622Z,1.52
2022-11-18T10:26:29.784Z,1.38
2022-11-18T10:28:55.936Z,1.17
2022-11-18T10:31:22.079Z,1.00
2022-11-18T10:33:48.270Z,1.30
2022-11-18T10:36:14.426Z,1.30
2022-11-18T10:38:42.349Z,1.20
2022-11-18T10:41:11.751Z,1.20
2022-11-18T10:43:37.921Z,1.50
2022-11-18T10:46:04.103Z,1.17
2022-11-18T10:48:30.252Z,1.70
2022-11-18T10:50:56.772Z,1.15
2022-11-18T10:53:22.964Z,1.45
2022-11-18T10:55:49.102Z,1.20
2022-11-18T10:58:15.310Z,1.52
2022-11-18T11:00:41.528Z,1.65
2022-11-18T11:03:07.775Z,1.60
2022-11-18T11:05:34.073Z,1.85
2022-11-18T11:08:21.199Z,1.45
2022-11-18T11:10:51.416Z,1.60
2022-11-18T11:13:18.914Z,1.35
2022-11-18T11:15:45.098Z,1.50
2022-11-18T11:18:11.312Z,1.58
2022-11-18T11:20:37.522Z,1.50
2022-11-18T11:23:03.661Z,1.40
2022-11-18T11:28:16.889Z,1.83
2022-11-18T11:30:46.304Z,1.58
2022-11-18T11:33:12.983Z,1.60
2022-11-18T11:35:39.173Z,1.77
2022-11-18T11:38:05.344Z,1.60
2022-11-18T11:40:31.496Z,1.60
2022-11-18T11:42:57.680Z,2.03
2022-11-18T11:45:23.808Z,1.63
2022-11-18T11:47:50.072Z,1.42
2022-11-18T11:50:16.281Z,1.67
2022-11-18T11:52:42.395Z,1.60
2022-11-18T11:55:08.535Z,1.80
2022-11-18T11:57:34.723Z,1.80
2022-11-18T12:00:01.043Z,1.48
2022-11-18T12:02:27.193Z,2.10
2022-11-18T12:04:53.427Z,2.00
2022-11-18T12:07:19.743Z,1.83
2022-11-18T12:09:45.975Z,1.80
2022-11-18T12:12:12.200Z,2.13
2022-11-18T12:14:39.984Z,1.98
2022-11-18T12:17:06.353Z,1.75
2022-11-18T12:19:32.584Z,1.70
2022-11-18T12:21:58.743Z,1.38
2022-11-18T12:24:24.877Z,1.75
2022-11-18T12:26:51.044Z,1.33
2022-11-18T12:29:17.504Z,1.40
2022-11-18T12:31:43.821Z,1.20
2022-11-18T12:34:09.974Z,1.55
2022-11-18T12:36:36.291Z,1.48
2022-11-18T12:39:02.567Z,1.20
2022-11-18T12:41:28.767Z,1.20
2022-11-18T12:43:54.882Z,1.40
2022-11-18T12:46:21.025Z,1.20
2022-11-18T12:48:47.157Z,1.10
2022-11-18T12:51:13.283Z,1.85
2022-11-18T12:53:39.488Z,3.15
2022-11-18T12:56:05.965Z,1.20
2022-11-18T12:58:32.094Z,1.60
2022-11-18T13:00:58.266Z,1.30
2022-11-18T13:03:24.693Z,1.80
2022-11-18T13:05:51.013Z,1.50
2022-11-18T13:08:17.124Z,1.40
2022-11-18T13:10:43.329Z,1.15
2022-11-18T13:13:12.297Z,1.00
2022-11-18T13:15:38.489Z,1.08
2022-11-18T13:18:04.649Z,0.90
2022-11-18T13:20:30.799Z,1.00
2022-11-18T13:22:56.932Z,0.90
2022-11-18T13:25:24.332Z,1.38
2022-11-18T13:27:50.482Z,1.30
2022-11-18T13:30:16.627Z,0.93
2022-11-18T13:32:42.799Z,1.20
2022-11-18T13:35:08.915Z,1.20
2022-11-18T13:37:35.116Z,0.90
2022-11-18T13:40:01.354Z,1.50
2022-11-18T13:42:27.601Z,1.10
2022-11-18T13:44:53.800Z,1.15
2022-11-18T13:47:20.001Z,1.45
2022-11-18T13:49:50.683Z,1.10
2022-11-18T13:52:17.346Z,1.55
2022-11-18T13:54:43.547Z,1.30
2022-11-18T13:57:09.777Z,1.17
2022-11-18T13:59:35.967Z,1.30
2022-11-18T14:02:02.282Z,1.20
2022-11-18T14:04:28.422Z,1.25
2022-11-18T14:06:54.672Z,1.35
2022-11-18T14:09:21.227Z,1.30
2022-11-18T14:11:47.583Z,1.27
2022-11-18T14:14:13.788Z,1.20
2022-11-18T14:16:39.924Z,1.65
2022-11-18T14:19:06.150Z,1.30
2022-11-18T14:21:32.303Z,1.50
2022-11-18T14:23:58.480Z,1.85
2022-11-18T14:26:24.643Z,1.45
2022-11-18T14:28:50.938Z,1.20
2022-11-18T14:31:17.397Z,1.30
2022-11-18T14:33:43.729Z,1.33
2022-11-18T14:36:09.913Z,1.30
2022-11-18T14:38:43.591Z,1.40
2022-11-18T14:41:18.514Z,1.27
2022-11-18T14:43:46.374Z,1.27
2022-11-18T14:46:12.571Z,1.80
2022-11-18T14:48:38.746Z,1.15
2022-11-18T14:51:04.881Z,1.50
2022-11-18T14:53:31.036Z,1.70
2022-11-18T14:55:57.260Z,1.40
2022-11-18T14:58:23.491Z,1.58
2022-11-18T15:00:49.741Z,1.50
2022-11-18T15:03:16.010Z,1.73
2022-11-18T15:05:42.205Z,1.40
2022-11-18T15:08:08.348Z,1.35
2022-11-18T15:10:34.537Z,1.73
2022-11-18T15:13:00.710Z,1.63
2022-11-18T15:15:26.839Z,1.63
2022-11-18T15:17:54.055Z,1.95
2022-11-18T15:20:20.384Z,1.55
2022-11-18T15:22:46.574Z,1.60
2022-11-18T15:25:12.743Z,1.98
2022-11-18T15:27:38.930Z,2.00
2022-11-18T15:30:05.075Z,2.63
2022-11-18T15:32:31.220Z,1.70
2022-11-18T15:34:57.397Z,1.70
2022-11-18T15:37:23.576Z,1.88
2022-11-18T15:39:49.713Z,1.90
2022-11-18T15:42:20.447Z,1.23
2022-11-18T15:44:49.200Z,1.65
2022-11-18T15:47:15.363Z,1.40
2022-11-18T15:49:41.571Z,2.00
2022-11-18T15:52:09.954Z,1.90
2022-11-18T15:54:36.152Z,2.00
2022-11-18T15:57:02.317Z,1.40
2022-11-18T15:59:28.551Z,1.45
2022-11-18T16:01:54.740Z,1.42
2022-11-18T16:04:21.375Z,1.88
2022-11-18T16:06:48.997Z,1.50
2022-11-18T16:09:15.183Z,1.92
2022-11-18T16:11:41.388Z,1.90
2022-11-18T16:14:07.557Z,1.70
2022-11-18T16:16:33.750Z,1.50
2022-11-18T16:18:59.885Z,1.55
2022-11-18T16:21:26.074Z,1.90
2022-11-18T16:23:52.295Z,1.83
2022-11-18T16:26:18.435Z,2.20
2022-11-18T16:28:44.563Z,2.40
2022-11-18T16:31:10.710Z,1.90
2022-11-18T16:33:36.863Z,2.75
2022-11-18T16:36:03.049Z,1.98
2022-11-18T16:38:29.174Z,2.97
2022-11-18T16:40:55.286Z,4.47
2022-11-18T16:43:21.433Z,5.53
2022-11-18T16:45:47.596Z,7.05
2022-11-18T16:48:13.758Z,6.68
2022-11-18T16:50:39.968Z,8.02
2022-11-18T16:53:06.126Z,6.88
2022-11-18T16:55:32.256Z,8.77
2022-11-18T16:57:58.440Z,6.00
2022-11-18T17:00:42.973Z,3.58
2022-11-18T17:03:10.733Z,3.60
2022-11-18T17:05:36.946Z,2.40
2022-11-18T17:08:03.219Z,3.75
2022-11-18T17:10:29.456Z,3.53
2022-11-18T17:12:55.667Z,3.22
2022-11-18T17:15:21.802Z,2.75
2022-11-18T17:17:47.960Z,2.55
2022-11-18T17:20:14.162Z,2.10
2022-11-18T17:22:40.323Z,2.67
2022-11-18T17:25:06.635Z,2.60
2022-11-18T17:27:32.773Z,2.78
2022-11-18T17:29:58.954Z,2.47
2022-11-18T17:32:25.134Z,2.72
2022-11-18T17:34:51.291Z,4.63
2022-11-18T17:37:17.442Z,3.60
2022-11-18T17:39:43.584Z,2.63
2022-11-18T17:42:09.815Z,3.65
2022-11-18T17:44:35.975Z,4.13
2022-11-18T17:47:02.159Z,3.30
2022-11-18T17:49:28.292Z,3.83
2022-11-18T17:51:54.743Z,4.43
2022-11-18T17:54:21.336Z,3.47
2022-11-18T17:56:47.764Z,4.18
2022-11-18T17:59:13.945Z,3.25
2022-11-18T18:01:40.223Z,3.17
2022-11-18T18:04:06.488Z,3.13
2022-11-18T18:06:32.707Z,3.00
2022-11-18T18:08:58.862Z,3.80
2022-11-18T18:11:25.019Z,6.65
2022-11-18T18:13:51.180Z,5.20
2022-11-18T18:16:17.372Z,6.55
2022-11-18T18:18:43.555Z,7.95
2022-11-18T18:21:12.841Z,7.00
2022-11-18T18:23:39.337Z,5.00
2022-11-18T18:26:05.484Z,4.93
2022-11-18T18:28:31.664Z,4.88
2022-11-18T18:30:57.803Z,5.57
2022-11-18T18:33:23.972Z,4.70
2022-11-18T18:35:50.094Z,4.38
2022-11-18T18:38:16.264Z,7.05
2022-11-18T18:40:42.400Z,8.20
2022-11-18T18:43:08.537Z,6.10
2022-11-18T18:45:34.726Z,5.85
2022-11-18T18:48:00.898Z,4.55
2022-11-18T18:50:29.820Z,5.10
2022-11-18T18:52:56.202Z,4.20
2022-11-18T18:55:22.326Z,3.85
2022-11-18T18:57:48.481Z,3.28
2022-11-18T19:00:14.632Z,3.25
2022-11-18T19:02:40.807Z,3.60
2022-11-18T19:05:06.929Z,2.92
2022-11-18T19:07:33.275Z,3.35
2022-11-18T19:09:59.581Z,2.55
2022-11-18T19:12:25.715Z,2.65
2022-11-18T19:14:51.941Z,2.90
2022-11-18T19:17:20.402Z,3.35
2022-11-18T19:19:46.581Z,5.15
2022-11-18T19:22:12.804Z,3.38
2022-11-18T19:24:49.895Z,3.53
2022-11-18T19:27:16.822Z,3.30
2022-11-18T19:29:42.956Z,3.30
2022-11-18T19:32:09.100Z,2.92
2022-11-18T19:34:35.211Z,20.52
2022-11-18T19:37:01.652Z,14.65
2022-11-18T19:39:27.939Z,7.00
2022-11-18T19:41:54.055Z,5.93
2022-11-18T19:44:20.237Z,6.75
2022-11-18T19:46:46.409Z,5.40
2022-11-18T19:49:12.609Z,6.03
2022-11-18T19:51:38.742Z,4.90
2022-11-18T19:54:04.944Z,4.25
2022-11-18T19:56:31.063Z,5.00
2022-11-18T19:58:57.244Z,4.10
2022-11-18T20:01:23.498Z,5.22
2022-11-18T20:03:49.719Z,3.70
2022-11-18T20:06:15.831Z,3.90
2022-11-18T20:08:41.974Z,4.38
2022-11-18T20:11:09.463Z,3.42
2022-11-18T20:13:38.138Z,2.78
2022-11-18T20:16:04.324Z,2.75
2022-11-18T20:18:30.506Z,2.90
2022-11-18T20:20:56.706Z,3.30
2022-11-18T20:23:22.900Z,2.88
2022-11-18T20:25:49.031Z,3.38
2022-11-18T20:28:15.156Z,3.55
2022-11-18T20:30:41.277Z,3.85
2022-11-18T20:33:07.468Z,3.38
2022-11-18T20:35:33.667Z,3.78
2022-11-18T20:37:59.840Z,4.20
2022-11-18T20:40:26.057Z,4.18
2022-11-18T20:42:52.985Z,3.90
2022-11-18T20:45:19.278Z,4.00
2022-11-18T20:47:45.423Z,4.43
2022-11-18T20:50:12.612Z,4.38
2022-11-18T20:52:38.803Z,4.90
2022-11-18T20:55:05.941Z,4.30
2022-11-18T20:57:32.411Z,4.13
2022-11-18T20:59:58.522Z,4.25
2022-11-18T21:02:24.698Z,4.13
2022-11-18T21:04:50.838Z,4.32
2022-11-18T21:07:17.047Z,3.83
2022-11-18T21:09:43.239Z,3.40
2022-11-18T21:12:09.353Z,3.80
2022-11-18T21:14:35.508Z,3.88
2022-11-18T21:17:01.655Z,3.60
2022-11-18T21:19:27.817Z,3.97
2022-11-18T21:21:54.006Z,3.63
2022-11-18T21:24:20.132Z,3.58
2022-11-18T21:26:46.251Z,3.50
2022-11-18T21:29:12.393Z,3.42
2022-11-18T21:31:38.575Z,3.95
2022-11-18T21:34:04.734Z,4.75
2022-11-18T21:36:30.850Z,4.97
2022-11-18T21:38:56.965Z,4.43
2022-11-18T21:41:23.110Z,5.38
2022-11-18T21:44:06.255Z,5.15
2022-11-18T21:46:32.714Z,6.30
2022-11-18T21:49:00.497Z,6.88
2022-11-18T21:51:26.914Z,5.72
2022-11-18T21:53:53.104Z,8.07
2022-11-18T21:56:19.282Z,6.40
2022-11-18T21:58:45.466Z,4.10
2022-11-18T22:01:11.613Z,4.85
2022-11-18T22:03:37.798Z,4.05
2022-11-18T22:06:03.954Z,3.60
2022-11-18T22:08:30.083Z,3.65
2022-11-18T22:10:56.234Z,3.95
2022-11-18T22:13:22.409Z,3.80
2022-11-18T22:15:48.591Z,3.90
2022-11-18T22:18:14.755Z,4.15
2022-11-18T22:20:41.602Z,3.90
2022-11-18T22:23:07.752Z,3.97
2022-11-18T22:25:33.900Z,4.53
2022-11-18T22:28:00.001Z,4.30
2022-11-18T22:30:26.143Z,4.38
2022-11-18T22:32:52.297Z,4.10
2022-11-18T22:35:18.458Z,4.63
2022-11-18T22:37:44.611Z,4.45
2022-11-18T22:40:10.780Z,4.18
2022-11-18T22:42:36.911Z,3.80
2022-11-18T22:45:03.077Z,3.75
2022-11-18T22:47:29.259Z,3.72
2022-11-18T22:49:56.635Z,4.00
2022-11-18T22:52:22.916Z,4.20
2022-11-18T22:54:49.104Z,4.28
2022-11-18T22:57:15.292Z,4.32
2022-11-18T22:59:41.414Z,3.20
2022-11-18T23:02:07.582Z,4.45
2022-11-18T23:04:33.703Z,4.25
2022-11-18T23:06:59.927Z,3.72
2022-11-18T23:09:26.706Z,3.42
2022-11-18T23:11:52.836Z,3.83
2022-11-18T23:14:18.952Z,4.68
2022-11-18T23:16:45.091Z,4.05
2022-11-18T23:19:11.216Z,3.70
2022-11-18T23:21:37.350Z,3.90
2022-11-18T23:24:03.475Z,3.40
2022-11-18T23:26:29.643Z,4.97
2022-11-18T23:28:55.829Z,4.57
2022-11-18T23:31:21.986Z,3.70
2022-11-18T23:33:48.181Z,3.17
2022-11-18T23:36:14.388Z,3.53
2022-11-18T23:38:40.513Z,3.45
2022-11-18T23:41:06.617Z,3.13
2022-11-18T23:43:32.786Z,2.70
2022-11-18T23:45:58.951Z,2.92
2022-11-18T23:48:25.121Z,2.90
2022-11-18T23:50:51.346Z,3.20
2022-11-18T23:53:17.516Z,4.68
2022-11-18T23:55:43.703Z,2.80
2022-11-18T23:58:09.880Z,2.80
